• Join FlightAware (Why Join?)
  • Login
  • US Flag 
02:22AM EDT


 

Airport Tracker/Info


-or-


 

Live Flight TrackerFlight Track Log ✈ LBQ830 ✈ 21-May-2012 ✈ KLZU - KHEG

Flight Track Log - Related Links

Times and Time Zones

All times are in EDT time to prevent confusion due to time zone crossing. See the LBQ830 flight status page for this flight to view local times or setup timezone preferences in your user account.

Time Position Orientation Groundspeed Altitude Reporting Facility
EDT Latitude Longitude Course Direction KTS MPH feet Rate Location/Type
06:17PM 33.9833 -83.9833 270° West 101 116 1,500  Level Atlanta TRACON
06:18PM 33.9833 -84.0167 40° Northeast 136 157 2,500 900 Climbing Atlanta TRACON
06:19PM 34.0000 -84.0000 68° East 168 193 3,400 840 Climbing Atlanta TRACON
06:20PM 34.0167 -83.9500 90° East 168 193 4,200 720 Climbing Atlanta TRACON
06:21PM 34.0167 -83.8833 112° Southeast 169 194 4,800 360 Climbing Atlanta TRACON
06:22PM 34.0000 -83.8333 151° Southeast 192 221 5,000 60 Climbing Atlanta TRACON
06:23PM 33.9500 -83.8000 157° South 201 231 5,000  Level Atlanta TRACON
06:24PM 33.9167 -83.7833 151° Southeast 184 212 5,000  Level Atlanta TRACON
06:25PM 33.8667 -83.7500 151° Southeast 185 213 5,000  Level Atlanta TRACON
06:26PM 33.8167 -83.7167 151° Southeast 198 228 5,000  Level Atlanta TRACON
06:27PM 33.7667 -83.6833 157° South 182 209 5,000  Level Atlanta TRACON
06:28PM 33.7333 -83.6667 157° South 190 219 5,000  Level Atlanta TRACON
06:30PM 33.6333 -83.6167 151° Southeast 186 214 5,000  Level Atlanta TRACON
06:31PM 33.5833 -83.5833 164° South 189 217 5,000  Level Atlanta TRACON
06:32PM 33.5333 -83.5667 151° Southeast 188 216 5,000  Level Atlanta TRACON
06:33PM 33.4833 -83.5333 151° Southeast 192 221 5,000  Level Atlanta TRACON
06:34PM 33.4333 -83.5000 151° Southeast 202 232 5,000  Level Atlanta TRACON
06:35PM 33.3833 -83.4667 151° Southeast 193 222 5,000  Level Atlanta TRACON
06:36PM 33.3333 -83.4333 164° South 200 230 5,000  Level Atlanta TRACON
06:37PM 33.2833 -83.4167 151° Southeast 203 234 5,000  Level Atlanta TRACON
06:38PM 33.2333 -83.3833 151° Southeast 197 227 5,000  Level Atlanta TRACON
06:39PM 33.1833 -83.3500 164° South 199 229 5,000  Level Atlanta TRACON
06:40PM 33.1333 -83.3333 151° Southeast 199 229 5,000  Level Atlanta TRACON
06:41PM 33.0833 -83.3000 151° Southeast 198 228 5,000  Level Atlanta TRACON
06:42PM 33.0333 -83.2667 164° South 196 226 5,000  Level Atlanta TRACON
06:43PM 32.9833 -83.2500 151° Southeast 206 237 5,000  Level Atlanta TRACON
06:44PM 32.9333 -83.2167 151° Southeast 200 230 5,000  Level Atlanta TRACON
06:45PM 32.8833 -83.1833 164° South 201 231 5,000  Level Atlanta TRACON
06:46PM 32.8333 -83.1667 151° Southeast 199 229 5,000  Level Atlanta TRACON
06:47PM 32.7833 -83.1333 164° South 197 227 5,000  Level Atlanta TRACON
06:48PM 32.7333 -83.1167 151° Southeast 198 228 5,000  Level Atlanta TRACON
06:49PM 32.6833 -83.0833 151° Southeast 197 227 5,000  Level Atlanta TRACON
06:50PM 32.6333 -83.0500 164° South 199 229 5,000  Level Atlanta TRACON
06:51PM 32.5833 -83.0333 154° Southeast 194 223 5,000  Level Atlanta TRACON
06:52PM 32.5108 -82.9911 157° South 193 222 5,000  Level Jacksonville Center
06:53PM 32.4608 -82.9664 156° South 193 222 5,000  Level Jacksonville Center
06:54PM 32.4108 -82.9394 156° South 193 222 5,000  Level Jacksonville Center
06:55PM 32.3586 -82.9122 160° South 193 222 5,000  Level Jacksonville Center
06:56PM 32.3086 -82.8903 156° South 201 231 5,000  Level Jacksonville Center
06:57PM 32.2564 -82.8631 154° Southeast 209 241 5,000  Level Jacksonville Center
06:58PM 32.2042 -82.8336 158° South 209 241 5,000  Level Jacksonville Center
06:59PM 32.1519 -82.8092 154° Southeast 204 235 5,000  Level Jacksonville Center
07:00PM 32.0997 -82.7797 156° South 204 235 5,000  Level Jacksonville Center
07:01PM 32.0475 -82.7528 158° South 209 241 5,000  Level Jacksonville Center
07:02PM 31.9972 -82.7283 156° South 209 241 5,000  Level Jacksonville Center
07:03PM 31.9472 -82.7017 156° South 209 241 5,000  Level Jacksonville Center
07:04PM 31.8950 -82.6747 157° South 209 241 5,000  Level Jacksonville Center
07:05PM 31.8428 -82.6481 158° South 209 241 5,000  Level Jacksonville Center
07:06PM 31.7925 -82.6236 155° Southeast 209 241 5,000  Level Jacksonville Center
07:07PM 31.7403 -82.5944 154° Southeast 209 241 5,000  Level Jacksonville Center
07:08PM 31.6900 -82.5653 154° Southeast 209 241 5,000  Level Jacksonville Center
07:09PM 31.6400 -82.5364 155° Southeast 209 241 5,000  Level Jacksonville Center
07:10PM 31.5875 -82.5072 156° South 209 241 5,000  Level Jacksonville Center
07:11PM 31.5375 -82.4806 152° Southeast 203 234 5,000  Level Jacksonville Center
07:12PM 31.4914 -82.4517 157° South 203 234 5,000  Level Jacksonville Center
07:13PM 31.4369 -82.4250 151° Southeast 203 234 5,000  Level Jacksonville Center
07:14PM 31.3889 -82.3936 159° South 203 234 5,000  Level Jacksonville Center
07:15PM 31.3367 -82.3697 157° South 203 234 5,000  Level Jacksonville Center
07:16PM 31.2842 -82.3431 151° Southeast 203 234 5,000 -120 Level Jacksonville Center
07:17PM 31.2361 -82.3119 156° South 203 234 4,800 -300 Descending Jacksonville Center
07:18PM 31.1794 -82.2831 155° Southeast 208 239 4,500 -360 Descending Jacksonville Center
07:19PM 31.1272 -82.2542 153° Southeast 208 239 4,100 -300 Descending Jacksonville Center
07:20PM 31.0750 -82.2231 154° Southeast 214 246 4,000 -120 Descending Jacksonville Center
07:21PM 31.0414 -82.2039 155° Southeast 209 241 4,000  Level Jacksonville Center
07:22PM 30.9889 -82.1753 155° Southeast 204 235 4,000  Level Jacksonville Center
07:23PM 30.9408 -82.1489 154° Southeast 205 236 4,000 -120 Level Jacksonville Center
07:23PM 30.9200 -82.1369 155° Southeast 209 241 3,900 -240 Descending Jacksonville Center
07:24PM 30.8675 -82.1083 158° South 209 241 3,700 -300 Descending Jacksonville Center
07:25PM 30.8131 -82.0822 156° South 214 246 3,400 -300 Descending Jacksonville Center
07:26PM 30.7586 -82.0536 157° South 214 246 3,200 -300 Descending Jacksonville Center
07:27PM 30.7061 -82.0275 157° South 214 246 2,900 -420 Descending Jacksonville Center
07:28PM 30.6539 -82.0014 159° South 214 246 2,400 -360 Descending Jacksonville Center
07:29PM 30.6014 -81.9778 159° South 214 246 2,200 -180 Descending Jacksonville Center
07:31PM 30.5219 -81.9425 152° Southeast 195 224 2,000 -120 Descending Jacksonville Center
07:32PM 30.4758 -81.9139 159° South 187 215 2,000  Level Jacksonville Center
07:33PM 30.4275 -81.8928 154° Southeast 188 216 2,000  Level Jacksonville Center
07:40PM 30.2667 -81.8000 335° Northwest  Level FlightAware Approximate
07:41PM 30.3136 -81.8251 155° Southeast  Level Estimated
07:42PM 30.2667 -81.8000 155° Southeast  Level FlightAware Approximate